This is the latest recevied weather packets stored in our database for station/object PY2KO-13. If no packets are shown the sender has not sent any weather packets the latest 10 day(s).
| Time | Temp. | Humidity | Pressure | Rain* | Wind** | Luminosity | Snow |
|---|---|---|---|---|---|---|---|
| 1777221914 | 29.44° C | 44% | 1012.7 hPa | - | - | - | - |
| 1777220105 | 30° C | 42% | 1013 hPa | - | - | - | - |
| 1777218305 | 29.44° C | 44% | 1013.3 hPa | - | - | - | - |
| 1777218302 | 0° C | - | 0 hPa | - | - | - | - |
| 1777216504 | 29.44° C | 44% | 1013.7 hPa | - | - | - | - |
| 1777214706 | 28.89° C | 47% | 1014.1 hPa | - | - | - | - |
| 1777212905 | 30.56° C | 44% | 1014.8 hPa | - | - | - | - |
| 1777211105 | 29.44° C | 46% | 1015.4 hPa | - | - | - | - |
| 1777209305 | 30° C | 43% | 1015.7 hPa | - | - | - | - |
| 1777207505 | 27.78° C | 49% | 1015.7 hPa | - | - | - | - |
| 1777205705 | 26.67° C | 52% | 1015.9 hPa | - | - | - | - |
| 1777203905 | 26.11° C | 56% | 1015.8 hPa | - | - | - | - |
| 1777202105 | 25° C | 61% | 1015.6 hPa | - | - | - | - |
| 1777200305 | 24.44° C | 63% | 1015.5 hPa | - | - | - | - |
| 1777198505 | 23.33° C | 66% | 1015.2 hPa | - | - | - | - |
| 1777196705 | 23.33° C | 67% | 1014.9 hPa | - | - | - | - |
| 1777194905 | 23.89° C | 66% | 1014.4 hPa | - | - | - | - |
| 1777193105 | 23.89° C | 66% | 1014 hPa | - | - | - | - |
| 1777191305 | 23.89° C | 67% | 1013.7 hPa | - | - | - | - |
| 1777189505 | 23.89° C | 67% | 1013.6 hPa | - | - | - | - |
| 1777187706 | 23.89° C | 67% | 1013.8 hPa | - | - | - | - |
| 1777185905 | 23.89° C | 66% | 1014 hPa | - | - | - | - |
| 1777184104 | 23.89° C | 66% | 1013.9 hPa | - | - | - | - |
| 1777182305 | 23.89° C | 64% | 1014 hPa | - | - | - | - |
| 1777180504 | 23.89° C | 62% | 1014.1 hPa | - | - | - | - |
* Rain since midnight (hover to see other rain measurements)
** Current wind speed in m/s (hover to see current wind gust speed)